Time;durP1;ratioP1;P1;durP2;ratioP2;P2;SDS_P1;SDS_P2;PMS_P1;PMS_P2;Temp;Humidity;BMP_temperature;BMP_pressure;BME280_temperature;BME280_humidity;BME280_pressure;Samples;Min_cycle;Max_cycle;Signal;HPM_P1;HPM_P2
2022/07/26 07:59:03;;;;;;;7.90;2.80;;;;;;;20.07;66.93;101404.84;5197981;28;20406;-75
2022/07/26 08:01:34;;;;;;;6.45;2.67;;;;;;;20.02;67.18;101405.03;5190556;28;20031;-73
2022/07/26 08:04:05;;;;;;;10.88;3.17;;;;;;;20.04;67.18;101414.78;5173203;28;20102;-70
2022/07/26 08:06:37;;;;;;;9.65;2.58;;;;;;;20.27;66.98;101412.50;5163237;28;20023;-72
2022/07/26 08:09:08;;;;;;;6.30;3.13;;;;;;;20.42;66.46;101416.69;5153933;28;20057;-69
2022/07/26 08:11:42;;;;;;;5.60;2.78;;;;;;;20.44;66.46;101427.63;5163779;28;20031;-73
2022/07/26 08:14:18;;;;;;;15.52;12.77;;;;;;;20.40;65.57;101430.28;5220299;28;20032;-74
2022/07/26 08:16:49;;;;;;;11.50;8.48;;;;;;;20.11;66.10;101436.78;5279421;28;20112;-71
2022/07/26 08:19:20;;;;;;;7.28;3.80;;;;;;;19.96;70.50;101430.56;5279619;28;20115;-71
2022/07/26 08:21:51;;;;;;;5.38;3.13;;;;;;;19.87;73.78;101432.63;5279839;28;20483;-72
2022/07/26 08:24:23;;;;;;;4.53;2.00;;;;;;;19.66;74.40;101440.97;5182832;28;20034;-72
2022/07/26 08:26:54;;;;;;;2.50;1.58;;;;;;;19.65;74.62;101452.56;5193970;28;20031;-73
2022/07/26 08:29:25;;;;;;;1.02;0.90;;;;;;;19.40;75.11;101454.28;5179732;28;20031;-72
2022/07/26 08:31:57;;;;;;;2.85;0.85;;;;;;;19.36;75.88;101462.56;5189178;28;20467;-72
2022/07/26 08:34:28;;;;;;;2.75;0.80;;;;;;;19.23;76.15;101466.41;5194048;28;20088;-73
2022/07/26 08:36:59;;;;;;;2.25;1.13;;;;;;;19.20;76.69;101455.81;5192813;28;20030;-72
2022/07/26 08:39:31;;;;;;;2.17;0.90;;;;;;;19.22;77.02;101461.94;5189358;28;20023;-72
2022/07/26 08:42:03;;;;;;;0.80;0.80;;;;;;;19.24;75.86;101465.25;5167985;28;20110;-73
2022/07/26 08:44:34;;;;;;;6.25;4.22;;;;;;;19.25;76.01;101462.09;5170974;28;20023;-73
2022/07/26 08:47:05;;;;;;;6.00;4.10;;;;;;;19.40;76.21;101462.72;5172267;28;20367;-73
2022/07/26 08:49:37;;;;;;;2.03;1.45;;;;;;;19.48;76.28;101457.09;5171842;28;20085;-73
2022/07/26 08:52:10;;;;;;;1.20;1.10;;;;;;;19.64;75.15;101465.81;5173483;28;20039;-73
2022/07/26 08:54:47;;;;;;;1.40;1.27;;;;;;;19.72;74.59;101470.59;5203151;28;20104;-73
2022/07/26 08:57:19;;;;;;;1.35;0.95;;;;;;;19.83;72.40;101473.84;5170765;28;20035;-73
2022/07/26 09:00:24;;;;;;;21.55;19.50;;;;;;;19.80;72.71;101466.09;5182259;28;20049;-72
2022/07/26 09:02:57;;;;;;;8.77;4.30;;;;;;;19.98;71.93;101466.84;5179544;28;20035;-71
2022/07/26 09:05:34;;;;;;;2.20;1.30;;;;;;;20.02;71.90;101466.97;5184348;28;20113;-73
2022/07/26 09:08:27;;;;;;;1.52;1.25;;;;;;;19.99;72.39;101468.47;5191967;28;20046;-71
2022/07/26 09:11:00;;;;;;;1.88;1.25;;;;;;;19.99;72.46;101471.28;5158951;28;20058;-72
2022/07/26 09:13:56;;;;;;;3.10;1.75;;;;;;;20.15;70.39;101465.94;5160953;28;20482;-72
2022/07/26 09:16:28;;;;;;;1.13;0.82;;;;;;;20.24;68.36;101474.31;5158206;28;20088;-74
2022/07/26 09:19:22;;;;;;;1.15;0.90;;;;;;;20.57;68.58;101478.09;5163283;28;20037;-77
2022/07/26 09:21:54;;;;;;;4.40;0.95;;;;;;;20.61;68.73;101479.06;5162873;28;20033;-79
2022/07/26 09:24:44;;;;;;;3.15;1.85;;;;;;;20.57;69.61;101483.75;5159707;28;20096;-79
2022/07/26 09:27:17;;;;;;;2.00;1.35;;;;;;;20.41;70.73;101486.31;5167028;28;20376;-76
2022/07/26 09:29:51;;;;;;;2.35;1.60;;;;;;;20.44;70.66;101489.63;5179082;28;20038;-82
2022/07/26 09:32:25;;;;;;;2.93;1.47;;;;;;;20.50;70.24;101488.22;5165368;28;20038;-83
2022/07/26 09:35:10;;;;;;;3.70;1.58;;;;;;;20.53;69.75;101493.19;5181517;28;20309;-84
2022/07/26 09:37:42;;;;;;;2.08;1.20;;;;;;;20.31;70.33;101486.69;5163693;28;20047;-83
2022/07/26 09:40:16;;;;;;;1.65;1.38;;;;;;;20.37;72.39;101490.13;5160875;28;20027;-87
2022/07/26 09:43:01;;;;;;;4.22;2.03;;;;;;;20.29;74.79;101499.47;5161734;28;20029;-83
2022/07/26 09:45:34;;;;;;;3.35;1.83;;;;;;;20.30;73.83;101506.75;5180435;28;20035;-84
2022/07/26 09:48:10;;;;;;;3.25;1.90;;;;;;;20.47;72.77;101511.47;5168704;28;20027;-85
2022/07/26 09:50:45;;;;;;;;;;;;;;;20.57;71.58;101511.09;5142965;28;20040;-85
2022/07/26 09:53:16;;;;;;;4.57;2.03;;;;;;;20.30;69.79;101516.03;5161497;28;20283;-86
2022/07/26 09:55:48;;;;;;;7.05;1.95;;;;;;;20.43;69.83;101511.34;5158482;28;20062;-83
2022/07/26 09:58:19;;;;;;;6.43;2.73;;;;;;;20.59;68.06;101518.03;5173751;28;20047;-84
2022/07/26 10:00:51;;;;;;;41.92;37.47;;;;;;;20.74;68.41;101519.44;5179845;28;20618;-81
2022/07/26 10:03:22;;;;;;;11.75;10.40;;;;;;;20.61;68.12;101514.91;5178743;28;20029;-86
2022/07/26 10:05:54;;;;;;;5.07;2.58;;;;;;;20.56;67.54;101520.72;5164390;28;20024;-83
2022/07/26 10:08:26;;;;;;;5.82;2.33;;;;;;;20.62;67.30;101520.16;5162899;28;20027;-84
2022/07/26 10:11:07;;;;;;;4.82;1.63;;;;;;;20.65;67.61;101526.28;5160328;28;20320;-85
2022/07/26 10:13:38;;;;;;;4.18;1.70;;;;;;;20.50;67.75;101522.03;5169929;28;20078;-85
2022/07/26 10:16:30;;;;;;;1.48;1.30;;;;;;;20.56;67.24;101529.19;5161383;28;20787;-84
2022/07/26 10:19:04;;;;;;;19.42;2.17;;;;;;;20.33;67.92;101539.88;5167908;28;20537;-87
2022/07/26 10:21:36;;;;;;;8.23;1.83;;;;;;;20.45;68.25;101533.50;5158412;28;20387;-83
2022/07/26 10:24:24;;;;;;;3.78;1.00;;;;;;;20.38;69.53;101542.50;5158429;28;20028;-85
2022/07/26 10:26:55;;;;;;;1.73;1.00;;;;;;;20.11;68.94;101555.06;5175649;28;20081;-82
2022/07/26 10:29:27;;;;;;;1.98;1.02;;;;;;;20.11;70.17;101550.25;5162634;28;20027;-87
2022/07/26 10:32:01;;;;;;;0.93;0.85;;;;;;;20.20;70.45;101547.41;5168030;28;20030;-84
2022/07/26 10:34:38;;;;;;;1.70;1.10;;;;;;;20.24;70.99;101553.19;5184383;28;20117;-89
2022/07/26 10:37:20;;;;;;;2.53;1.20;;;;;;;20.38;69.75;101553.78;5182863;28;20362;-89
2022/07/26 10:40:16;;;;;;;1.90;1.70;;;;;;;20.38;68.29;101554.59;5160974;28;20028;-87
2022/07/26 10:42:47;;;;;;;2.50;1.27;;;;;;;20.38;66.55;101557.41;5166661;28;20023;-87
2022/07/26 10:45:21;;;;;;;6.57;2.70;;;;;;;20.35;65.82;101554.44;5163812;28;20019;-83
2022/07/26 10:48:13;;;;;;;4.77;1.47;;;;;;;20.56;64.48;101561.00;5159693;28;20031;-85
2022/07/26 10:50:52;;;;;;;2.17;1.30;;;;;;;20.36;63.62;101567.38;5159816;28;20282;-86
2022/07/26 10:53:26;;;;;;;2.38;1.10;;;;;;;20.66;62.30;101556.13;5163030;28;20027;-87
2022/07/26 10:55:58;;;;;;;2.22;1.10;;;;;;;20.69;61.89;101563.91;5156886;28;20024;-85
2022/07/26 10:58:41;;;;;;;1.38;1.00;;;;;;;20.70;62.01;101560.72;5170635;28;20049;-82
2022/07/26 11:01:12;;;;;;;2.88;1.27;;;;;;;21.00;61.54;101563.53;5159188;28;20080;-87
2022/07/26 11:03:43;;;;;;;5.22;1.55;;;;;;;20.84;61.85;101580.22;5158889;28;20413;-83
2022/07/26 11:06:17;;;;;;;4.55;2.30;;;;;;;20.86;62.32;101569.41;5158440;28;20424;-84
2022/07/26 11:08:48;;;;;;;3.13;1.13;;;;;;;20.89;62.52;101573.53;5158128;28;20114;-78
2022/07/26 11:11:30;;;;;;;2.80;1.55;;;;;;;20.71;61.80;101584.94;5158145;28;20174;-76
2022/07/26 11:14:07;;;;;;;3.47;1.30;;;;;;;20.74;61.86;101587.06;5143754;28;20024;-77
2022/07/26 11:16:44;;;;;;;8.20;7.28;;;;;;;20.51;65.32;101585.69;5151204;29;20027;-79
2022/07/26 11:19:20;;;;;;;2.75;1.48;;;;;;;20.21;68.46;101591.28;5156914;28;20036;-82
2022/07/26 11:21:57;;;;;;;5.45;3.30;;;;;;;20.00;74.31;101604.47;5158366;28;20068;-81
2022/07/26 11:24:29;;;;;;;17.65;15.73;;;;;;;19.90;77.88;101605.63;5160520;28;20111;-79
2022/07/26 11:27:03;;;;;;;5.65;2.42;;;;;;;19.70;81.30;101607.16;5165071;28;20045;-80
2022/07/26 11:29:36;;;;;;;3.42;1.67;;;;;;;19.69;84.41;101606.34;5166626;28;20028;-81
2022/07/26 11:32:17;;;;;;;4.25;2.17;;;;;;;19.74;81.34;101600.53;5156615;28;20467;-81
2022/07/26 11:34:59;;;;;;;3.65;3.25;;;;;;;19.69;82.40;101603.53;5160397;28;20046;-84
2022/07/26 11:37:30;;;;;;;4.53;3.03;;;;;;;19.58;82.73;101604.16;5162018;28;20363;-82
2022/07/26 11:40:05;;;;;;;4.25;2.17;;;;;;;19.51;83.58;101610.31;5161429;28;20035;-84
2022/07/26 11:42:36;;;;;;;3.03;1.87;;;;;;;19.45;82.12;101609.63;5159790;28;20118;-82
2022/07/26 11:45:11;;;;;;;4.50;1.50;;;;;;;19.51;80.79;101611.13;5168072;28;20722;-83
2022/07/26 11:47:42;;;;;;;2.85;1.15;;;;;;;19.72;78.91;101604.84;5174326;28;20475;-88
2022/07/26 11:50:14;;;;;;;2.83;1.38;;;;;;;19.60;76.60;101602.66;5173093;28;20070;-87
2022/07/26 11:52:45;;;;;;;2.25;1.10;;;;;;;19.92;76.04;101615.41;5177912;28;20035;-90
2022/07/26 11:55:26;;;;;;;4.22;1.30;;;;;;;20.09;77.07;101608.88;5183531;28;20030;-91
2022/07/26 11:58:04;;;;;;;9.30;5.68;;;;;;;20.00;71.43;101602.47;5186950;28;20065;-86
2022/07/26 12:00:35;;;;;;;3.53;1.38;;;;;;;20.45;72.46;101604.75;5199031;28;20023;-87
2022/07/26 12:03:07;;;;;;;3.33;1.70;;;;;;;20.75;71.05;101602.81;5190420;28;20023;-89
2022/07/26 12:05:40;;;;;;;2.50;1.40;;;;;;;20.78;68.08;101602.13;5179457;28;20073;-81
2022/07/26 12:08:12;;;;;;;2.10;1.33;;;;;;;20.91;66.15;101605.84;5179207;28;20027;-85
2022/07/26 12:10:52;;;;;;;4.15;0.82;;;;;;;20.84;65.46;101600.78;5162906;28;20031;-84
2022/07/26 12:13:25;;;;;;;1.63;1.10;;;;;;;20.73;65.87;101607.13;5180278;28;20416;-80
2022/07/26 12:15:56;;;;;;;3.55;1.30;;;;;;;20.68;65.49;101613.78;5174460;28;20035;-81
2022/07/26 12:18:29;;;;;;;2.33;1.15;;;;;;;20.74;65.58;101614.44;5163105;28;20030;-78
2022/07/26 12:21:06;;;;;;;5.93;2.03;;;;;;;20.48;65.84;101608.88;5158736;28;20043;-78
2022/07/26 12:23:40;;;;;;;3.50;1.40;;;;;;;20.19;66.22;101610.50;5141274;28;20185;-77
2022/07/26 12:26:18;;;;;;;3.03;1.55;;;;;;;20.39;67.17;101604.13;5165727;28;20031;-77
2022/07/26 12:28:50;;;;;;;3.47;1.58;;;;;;;20.40;67.27;101605.81;5169125;28;20039;-76
2022/07/26 12:31:30;;;;;;;2.78;1.50;;;;;;;20.45;67.11;101599.13;5174694;28;20027;-77
2022/07/26 12:34:01;;;;;;;6.00;2.35;;;;;;;20.45;66.62;101601.13;5177370;28;20026;-78
2022/07/26 12:36:32;;;;;;;4.65;1.67;;;;;;;20.44;66.84;101602.31;5176211;28;20034;-77
2022/07/26 12:39:04;;;;;;;3.63;2.00;;;;;;;20.42;67.65;101599.81;5148878;28;20090;-78
2022/07/26 12:41:39;;;;;;;4.45;1.73;;;;;;;20.41;68.80;101609.44;5137601;28;20031;-78
2022/07/26 12:44:11;;;;;;;5.30;1.60;;;;;;;20.47;67.42;101607.25;5333719;23;20050;-80
2022/07/26 12:46:43;;;;;;;3.95;1.98;;;;;;;20.49;67.57;101604.94;5225297;28;20424;-81
2022/07/26 12:49:14;;;;;;;5.38;1.70;;;;;;;20.49;67.65;101616.19;5225690;28;20378;-81
2022/07/26 12:51:46;;;;;;;85.40;76.88;;;;;;;20.55;67.03;101609.22;5225806;28;20025;-79
2022/07/26 12:54:17;;;;;;;6.35;4.50;;;;;;;20.52;67.23;101610.69;5225043;28;20025;-80
2022/07/26 12:56:51;;;;;;;5.30;2.38;;;;;;;20.48;67.64;101620.16;5225005;28;20083;-81
2022/07/26 12:59:22;;;;;;;4.60;1.92;;;;;;;20.34;68.09;101615.59;5222654;28;20045;-81
2022/07/26 13:01:54;;;;;;;3.35;1.10;;;;;;;20.42;66.99;101625.16;5225655;28;20029;-78
2022/07/26 13:04:25;;;;;;;3.67;1.50;;;;;;;20.09;66.24;101625.78;5225861;28;20041;-79
2022/07/26 13:06:56;;;;;;;3.63;1.88;;;;;;;20.09;67.32;101636.22;5222633;28;20034;-82
2022/07/26 13:09:28;;;;;;;4.25;1.88;;;;;;;20.12;68.85;101630.75;5224937;28;20030;-81
2022/07/26 13:12:00;;;;;;;3.72;1.73;;;;;;;19.97;73.47;101626.47;5225446;28;20773;-81
2022/07/26 13:14:33;;;;;;;70.43;63.33;;;;;;;19.83;74.94;101630.66;5223937;28;20484;-74
2022/07/26 13:17:06;;;;;;;7.72;3.75;;;;;;;19.84;75.42;101630.31;5224067;28;20021;-77
2022/07/26 13:19:37;;;;;;;3.65;2.08;;;;;;;19.77;75.60;101624.38;5222037;28;20466;-79
2022/07/26 13:22:15;;;;;;;6.57;2.03;;;;;;;19.79;76.14;101627.69;5222614;28;20030;-77
2022/07/26 13:24:46;;;;;;;3.92;1.80;;;;;;;19.60;76.92;101627.16;5223607;28;20374;-78
2022/07/26 13:27:17;;;;;;;4.78;1.90;;;;;;;19.77;74.82;101624.38;5223560;28;20045;-80
2022/07/26 13:29:49;;;;;;;2.53;1.40;;;;;;;19.85;75.97;101631.16;5222696;28;20029;-79
2022/07/26 13:32:20;;;;;;;5.53;2.42;;;;;;;19.88;77.99;101633.28;5222078;28;20025;-78
2022/07/26 13:34:51;;;;;;;4.25;2.03;;;;;;;19.97;75.70;101632.13;5222444;28;20373;-78
2022/07/26 13:37:23;;;;;;;4.20;1.70;;;;;;;20.06;75.86;101628.44;5223066;28;20037;-77
2022/07/26 13:39:55;;;;;;;3.47;2.05;;;;;;;19.85;75.13;101637.59;5222294;28;20033;-77
2022/07/26 13:42:26;;;;;;;4.50;1.83;;;;;;;19.96;76.74;101627.63;5223119;28;20037;-78
2022/07/26 13:44:58;;;;;;;3.63;2.03;;;;;;;19.87;77.90;101629.66;5223541;28;20046;-78
2022/07/26 13:47:29;;;;;;;5.53;2.22;;;;;;;19.74;77.14;101623.06;5224413;28;20025;-79
2022/07/26 13:50:00;;;;;;;3.33;2.03;;;;;;;19.67;77.26;101621.91;5222545;28;20061;-77
2022/07/26 13:52:32;;;;;;;7.30;3.58;;;;;;;19.60;77.62;101629.97;5223039;28;20036;-76
2022/07/26 13:55:07;;;;;;;3.58;2.03;;;;;;;19.69;78.01;101625.22;5221561;28;20113;-76
2022/07/26 13:57:38;;;;;;;7.80;2.95;;;;;;;19.65;78.93;101630.63;5222545;28;20022;-77
2022/07/26 14:00:10;;;;;;;10.20;3.72;;;;;;;19.55;80.04;101643.03;5222509;28;20042;-78
2022/07/26 14:02:41;;;;;;;11.55;7.03;;;;;;;19.69;79.16;101645.72;5221792;28;20512;-78
2022/07/26 14:05:13;;;;;;;16.38;13.55;;;;;;;19.80;78.68;101640.59;5222726;28;20040;-78
2022/07/26 14:07:44;;;;;;;9.52;7.45;;;;;;;19.69;79.72;101648.53;5223206;28;20037;-82
2022/07/26 14:10:15;;;;;;;4.13;2.50;;;;;;;19.66;80.09;101646.38;5223006;28;20076;-81
2022/07/26 14:12:47;;;;;;;6.57;3.00;;;;;;;19.83;80.23;101647.53;5223668;28;20026;-78
2022/07/26 14:15:19;;;;;;;5.15;2.50;;;;;;;19.89;80.70;101649.84;5221694;28;20042;-78
2022/07/26 14:17:51;;;;;;;3.95;2.80;;;;;;;20.03;78.19;101655.28;5222381;28;20145;-79
2022/07/26 14:20:22;;;;;;;7.05;3.22;;;;;;;19.91;78.84;101653.13;5223436;28;20382;-79
2022/07/26 14:22:56;;;;;;;5.63;2.88;;;;;;;20.11;79.26;101647.97;5222288;28;20029;-84
2022/07/26 14:25:27;;;;;;;3.35;2.15;;;;;;;20.19;77.84;101653.56;5222490;28;20112;-82
2022/07/26 14:27:59;;;;;;;5.43;2.90;;;;;;;20.26;78.22;101655.88;5222158;28;20112;-80
2022/07/26 14:30:31;;;;;;;4.15;2.92;;;;;;;20.31;77.43;101652.06;5218321;28;20485;-81
2022/07/26 14:33:03;;;;;;;4.43;2.65;;;;;;;20.48;77.59;101656.78;5222787;28;20052;-79
2022/07/26 14:35:35;;;;;;;6.78;3.47;;;;;;;20.25;77.07;101659.88;5207506;28;20032;-81
2022/07/26 14:38:07;;;;;;;5.95;3.38;;;;;;;20.18;77.74;101657.56;5215764;28;20041;-79
2022/07/26 14:40:39;;;;;;;5.47;3.60;;;;;;;20.06;76.88;101650.97;5224568;28;20017;-77
2022/07/26 14:43:11;;;;;;;3.92;2.50;;;;;;;19.94;74.88;101658.13;5220256;28;20114;-82
2022/07/26 14:45:46;;;;;;;5.32;3.05;;;;;;;20.01;76.00;101649.16;5221870;28;20120;-77
2022/07/26 14:48:18;;;;;;;5.15;2.50;;;;;;;19.96;73.42;101650.16;5222238;28;20026;-80
2022/07/26 14:50:49;;;;;;;5.90;2.13;;;;;;;20.08;73.28;101651.47;5220750;28;20033;-79
2022/07/26 14:53:21;;;;;;;6.90;3.60;;;;;;;20.08;72.37;101662.72;5220666;28;20026;-79
2022/07/26 14:55:52;;;;;;;6.38;3.75;;;;;;;20.16;71.70;101661.88;5221928;28;20057;-82
2022/07/26 14:58:23;;;;;;;4.05;1.90;;;;;;;20.16;69.03;101650.59;5219935;28;20385;-81
2022/07/26 15:00:56;;;;;;;5.88;2.30;;;;;;;20.26;70.04;101647.44;5221418;28;20104;-80
2022/07/26 15:03:29;;;;;;;3.50;1.88;;;;;;;20.62;69.71;101652.63;5221119;28;20030;-78
2022/07/26 15:06:00;;;;;;;6.32;2.13;;;;;;;20.54;67.65;101650.66;5222549;28;20026;-77
2022/07/26 15:08:31;;;;;;;5.82;2.17;;;;;;;20.57;67.33;101649.16;5221044;28;20444;-79
2022/07/26 15:11:04;;;;;;;5.57;1.55;;;;;;;20.70;66.59;101650.91;5221361;28;20052;-78
2022/07/26 15:13:35;;;;;;;4.18;1.80;;;;;;;20.66;66.01;101647.16;5220513;28;20109;-79
2022/07/26 15:16:07;;;;;;;4.75;1.90;;;;;;;20.78;66.33;101652.84;5221347;28;20541;-79
2022/07/26 15:18:38;;;;;;;30.77;20.05;;;;;;;20.81;65.92;101652.22;5220710;28;20136;-79
2022/07/26 15:21:12;;;;;;;5.65;3.15;;;;;;;20.69;63.96;101649.28;5221418;28;20041;-78
2022/07/26 15:23:46;;;;;;;4.32;2.15;;;;;;;20.83;65.76;101647.03;5220742;28;20018;-78
2022/07/26 15:26:17;;;;;;;6.00;2.30;;;;;;;20.89;64.96;101652.47;5220553;28;20025;-78
2022/07/26 15:28:48;;;;;;;7.15;1.77;;;;;;;20.97;65.27;101637.53;5220486;28;20037;-77
2022/07/26 15:31:20;;;;;;;6.82;1.88;;;;;;;20.89;63.59;101641.19;5220246;28;20080;-79
2022/07/26 15:33:51;;;;;;;3.33;1.55;;;;;;;20.92;64.50;101640.53;5219289;28;20018;-78
2022/07/26 15:36:22;;;;;;;4.75;1.67;;;;;;;20.83;63.44;101649.03;5220584;28;20026;-77
2022/07/26 15:38:54;;;;;;;3.70;2.17;;;;;;;20.79;63.79;101642.44;5214034;28;20062;-77
2022/07/26 15:41:25;;;;;;;5.05;1.60;;;;;;;20.64;64.38;101649.47;5206537;28;20037;-77
2022/07/26 15:43:56;;;;;;;4.57;1.80;;;;;;;20.65;63.86;101653.94;5220236;28;20421;-77
2022/07/26 15:46:28;;;;;;;39.33;35.38;;;;;;;20.63;64.70;101650.63;5220630;28;20722;-78
2022/07/26 15:48:59;;;;;;;9.20;6.03;;;;;;;20.50;62.79;101646.81;5221887;28;20048;-77
2022/07/26 15:51:30;;;;;;;9.48;2.72;;;;;;;20.55;62.56;101648.66;5220867;28;20109;-77
2022/07/26 15:54:01;;;;;;;4.13;2.00;;;;;;;20.60;61.49;101651.31;5205810;28;20022;-78
2022/07/26 15:56:36;;;;;;;8.68;2.45;;;;;;;20.63;61.74;101647.81;5211292;28;20033;-79
2022/07/26 15:59:07;;;;;;;5.40;1.98;;;;;;;20.61;62.12;101650.16;5221150;28;20034;-81
2022/07/26 16:01:39;;;;;;;4.57;1.73;;;;;;;20.70;61.85;101650.91;5220125;28;20022;-80
2022/07/26 16:04:10;;;;;;;4.95;1.75;;;;;;;20.61;61.24;101647.34;5221468;28;20080;-82
2022/07/26 16:06:42;;;;;;;4.63;2.20;;;;;;;20.51;61.78;101648.50;5221620;28;20061;-82
2022/07/26 16:09:13;;;;;;;6.50;2.05;;;;;;;20.50;61.62;101652.47;5221390;28;20026;-76
2022/07/26 16:11:45;;;;;;;8.60;2.17;;;;;;;20.58;61.40;101654.47;5220702;28;20385;-75
2022/07/26 16:14:17;;;;;;;6.13;3.35;;;;;;;20.66;61.55;101654.75;5218903;28;20022;-75
2022/07/26 16:16:48;;;;;;;5.38;1.88;;;;;;;20.61;61.12;101648.16;5219956;28;20033;-74
2022/07/26 16:19:19;;;;;;;6.18;2.40;;;;;;;20.57;60.35;101657.63;5221087;28;20030;-74
2022/07/26 16:21:51;;;;;;;6.75;2.00;;;;;;;20.51;60.77;101647.69;5222867;28;20030;-77
2022/07/26 16:24:24;;;;;;;5.28;2.38;;;;;;;20.54;59.70;101658.28;5223868;28;20034;-76
2022/07/26 16:26:55;;;;;;;4.78;2.00;;;;;;;20.57;59.30;101652.81;5223653;28;20041;-75
2022/07/26 16:29:26;;;;;;;10.60;2.53;;;;;;;20.55;58.79;101655.13;5223491;28;20018;-76
2022/07/26 16:31:58;;;;;;;11.52;3.30;;;;;;;20.68;59.51;101658.88;5224285;28;20030;-75
2022/07/26 16:34:32;;;;;;;9.55;2.50;;;;;;;20.70;58.75;101656.56;5224347;28;20036;-74
2022/07/26 16:37:04;;;;;;;7.90;2.10;;;;;;;20.87;58.49;101654.84;5223530;28;20106;-77
2022/07/26 16:39:35;;;;;;;7.00;2.20;;;;;;;20.95;57.57;101653.94;5224292;28;20045;-77
2022/07/26 16:42:06;;;;;;;10.95;2.70;;;;;;;20.93;57.63;101642.19;5223997;28;20099;-77
2022/07/26 16:44:38;;;;;;;10.02;3.03;;;;;;;21.04;58.02;101649.09;5223302;28;20038;-76
2022/07/26 16:47:09;;;;;;;8.07;2.53;;;;;;;21.05;57.11;101645.09;5224210;28;20556;-74
2022/07/26 16:49:41;;;;;;;7.88;2.33;;;;;;;21.15;57.23;101641.88;5224046;28;20045;-79
2022/07/26 16:52:12;;;;;;;12.93;8.07;;;;;;;21.45;56.73;101647.50;5223592;28;20113;-80
2022/07/26 16:54:43;;;;;;;5.07;2.38;;;;;;;21.40;54.97;101650.53;5225200;28;20045;-80
2022/07/26 16:57:14;;;;;;;6.82;2.17;;;;;;;21.39;54.04;101654.50;5224670;28;20045;-78
2022/07/26 16:59:46;;;;;;;9.05;2.85;;;;;;;21.14;54.39;101654.34;5224766;28;20064;-81
2022/07/26 17:02:17;;;;;;;11.07;6.70;;;;;;;21.14;54.48;101654.34;5226634;28;20022;-80
2022/07/26 17:04:48;;;;;;;7.40;3.17;;;;;;;20.94;54.48;101660.72;5224778;28;20030;-80
2022/07/26 17:07:20;;;;;;;6.10;2.35;;;;;;;20.77;55.21;101665.31;5229259;28;20030;-79
2022/07/26 17:09:52;;;;;;;8.18;2.40;;;;;;;20.70;56.14;101670.66;5239400;28;20026;-80
2022/07/26 17:12:23;;;;;;;7.60;2.22;;;;;;;20.78;56.49;101663.31;5243285;28;20021;-80
2022/07/26 17:14:55;;;;;;;6.85;2.15;;;;;;;20.70;56.12;101673.47;5238744;28;20033;-80
2022/07/26 17:17:26;;;;;;;9.23;2.60;;;;;;;20.72;55.83;101673.97;5224211;28;20108;-81
2022/07/26 17:19:57;;;;;;;4.88;1.92;;;;;;;20.67;56.08;101678.97;5224574;28;20125;-80
2022/07/26 17:22:29;;;;;;;6.85;2.30;;;;;;;20.66;56.15;101678.16;5223947;28;20049;-80
2022/07/26 17:25:00;;;;;;;11.70;3.92;;;;;;;20.57;56.74;101680.16;5223026;28;20504;-81
2022/07/26 17:27:34;;;;;;;8.55;2.47;;;;;;;20.53;56.39;101685.63;5224051;28;20038;-80
2022/07/26 17:30:06;;;;;;;4.20;1.75;;;;;;;20.33;55.53;101680.72;5223367;28;20127;-80
